Time;durP1;ratioP1;P1;durP2;ratioP2;P2;SDS_P1;SDS_P2;PMS_P1;PMS_P2;Temp;Humidity;BMP_temperature;BMP_pressure;BME280_temperature;BME280_humidity;BME280_pressure;Samples;Min_cycle;Max_cycle;Signal;HPM_P1;HPM_P2
2023/10/06 00:01:52;;;;;;;3.80;1.10;;;;;;;;;;4969161;28;20056;-59
2023/10/06 00:04:22;;;;;;;5.28;1.35;;;;;;;;;;4954738;28;20035;-61
2023/10/06 00:06:48;;;;;;;6.00;1.20;;;;;;;;;;4952989;28;20050;-63
2023/10/06 00:09:28;;;;;;;6.43;1.17;;;;;;;;;;4952828;28;20071;-64
2023/10/06 00:11:55;;;;;;;3.17;1.02;;;;;;;;;;4953378;28;20039;-62
2023/10/06 00:14:48;;;;;;;3.25;1.13;;;;;;;;;;4951550;28;20046;-62
2023/10/06 00:17:19;;;;;;;4.88;1.33;;;;;;;;;;4953577;28;20039;-62
2023/10/06 00:19:47;;;;;;;4.05;1.00;;;;;;;;;;4952941;28;20488;-59
2023/10/06 00:24:43;;;;;;;4.28;0.95;;;;;;;;;;4952465;28;20625;-59
2023/10/06 00:27:11;;;;;;;3.30;1.00;;;;;;;;;;4949767;28;21047;-60
2023/10/06 00:29:38;;;;;;;3.67;1.20;;;;;;;;;;4952813;28;20137;-59
2023/10/06 00:34:51;;;;;;;3.17;0.90;;;;;;;;;;4953409;28;20053;-62
2023/10/06 00:37:22;;;;;;;3.67;1.10;;;;;;;;;;4952905;28;20169;-60
2023/10/06 00:39:57;;;;;;;4.50;1.02;;;;;;;;;;4953298;28;20503;-58
2023/10/06 00:42:26;;;;;;;5.72;1.20;;;;;;;;;;4952834;28;20511;-59
2023/10/06 00:44:53;;;;;;;3.80;1.20;;;;;;;;;;4953956;28;20130;-64
2023/10/06 00:47:21;;;;;;;3.85;1.08;;;;;;;;;;4952937;28;20039;-60
2023/10/06 00:49:47;;;;;;;5.78;1.27;;;;;;;;;;4952682;28;20047;-61
2023/10/06 00:52:15;;;;;;;4.60;1.20;;;;;;;;;;4952805;28;20050;-62
2023/10/06 00:54:43;;;;;;;9.70;1.27;;;;;;;;;;4953153;28;20037;-59
2023/10/06 00:57:17;;;;;;;3.78;1.15;;;;;;;;;;4950168;28;20115;-62
2023/10/06 00:59:44;;;;;;;5.40;1.15;;;;;;;;;;4952642;28;20066;-60
2023/10/06 01:02:11;;;;;;;4.65;1.30;;;;;;;;;;4951882;28;20833;-61
2023/10/06 01:04:45;;;;;;;5.00;1.15;;;;;;;;;;4951751;28;20116;-60
2023/10/06 01:07:13;;;;;;;6.70;0.98;;;;;;;;;;4952658;28;20054;-63
2023/10/06 01:09:40;;;;;;;3.53;1.10;;;;;;;;;;4952050;28;20047;-58
2023/10/06 01:12:11;;;;;;;5.10;1.10;;;;;;;;;;4951465;28;20444;-59
2023/10/06 01:14:37;;;;;;;2.90;1.00;;;;;;;;;;4948457;28;20447;-59
2023/10/06 01:19:47;;;;;;;5.93;1.35;;;;;;;;;;4951853;28;20800;-61
2023/10/06 01:22:24;;;;;;;4.25;1.65;;;;;;;;;;4952399;28;20063;-59
2023/10/06 01:24:53;;;;;;;10.30;1.42;;;;;;;;;;4952191;28;20535;-59
2023/10/06 01:27:25;;;;;;;7.40;1.30;;;;;;;;;;4951340;28;20690;-64
2023/10/06 01:30:16;;;;;;;4.45;1.23;;;;;;;;;;4952345;28;20039;-60
2023/10/06 01:32:45;;;;;;;8.05;1.60;;;;;;;;;;4951834;28;20086;-60
2023/10/06 01:35:23;;;;;;;6.15;1.40;;;;;;;;;;4949959;28;20551;-60
2023/10/06 01:38:05;;;;;;;8.07;1.35;;;;;;;;;;4950773;28;20049;-60
2023/10/06 01:42:58;;;;;;;8.00;1.35;;;;;;;;;;4946872;28;20074;-62
2023/10/06 01:45:26;;;;;;;13.95;1.70;;;;;;;;;;4960335;28;20042;-60
2023/10/06 01:48:22;;;;;;;9.95;1.40;;;;;;;;;;4949810;28;20090;-61
2023/10/06 01:50:48;;;;;;;7.35;1.83;;;;;;;;;;4951550;28;20425;-60
2023/10/06 01:53:18;;;;;;;6.18;1.60;;;;;;;;;;4951673;28;20097;-60
2023/10/06 01:55:54;;;;;;;7.30;2.28;;;;;;;;;;4951185;28;20043;-60
2023/10/06 01:58:21;;;;;;;10.20;2.22;;;;;;;;;;4952263;28;20478;-59
2023/10/06 02:00:48;;;;;;;9.00;1.80;;;;;;;;;;4952476;28;20051;-62
2023/10/06 02:03:20;;;;;;;11.60;1.90;;;;;;;;;;4952922;28;20523;-60
2023/10/06 02:05:47;;;;;;;9.93;1.73;;;;;;;;;;4951588;28;20035;-60
2023/10/06 02:08:23;;;;;;;14.18;1.75;;;;;;;;;;4952221;28;20042;-62
2023/10/06 02:10:50;;;;;;;8.07;1.67;;;;;;;;;;4960274;28;20035;-60
2023/10/06 02:13:21;;;;;;;8.98;1.63;;;;;;;;;;4951068;28;20035;-62
2023/10/06 02:16:01;;;;;;;6.88;2.00;;;;;;;;;;4953712;28;20069;-58
2023/10/06 02:18:37;;;;;;;10.15;1.98;;;;;;;;;;4948996;28;20045;-62
2023/10/06 02:21:23;;;;;;;9.02;1.77;;;;;;;;;;4953401;28;20039;-62
2023/10/06 02:23:51;;;;;;;8.85;1.70;;;;;;;;;;4986952;28;20141;-58
2023/10/06 02:26:18;;;;;;;7.57;1.90;;;;;;;;;;4957008;28;20039;-61
2023/10/06 02:28:54;;;;;;;6.85;1.88;;;;;;;;;;4952300;28;20042;-61
2023/10/06 02:31:21;;;;;;;4.93;1.52;;;;;;;;;;4953366;28;20038;-63
2023/10/06 02:33:51;;;;;;;4.97;1.45;;;;;;;;;;4952764;28;20043;-59
2023/10/06 02:36:21;;;;;;;8.68;1.60;;;;;;;;;;4948938;28;20091;-60
2023/10/06 02:38:48;;;;;;;10.02;1.75;;;;;;;;;;4961060;28;20735;-61
2023/10/06 02:41:18;;;;;;;6.28;1.50;;;;;;;;;;4953955;28;20498;-60
2023/10/06 02:43:49;;;;;;;4.43;1.23;;;;;;;;;;4952116;28;20523;-61
2023/10/06 02:46:16;;;;;;;5.25;1.30;;;;;;;;;;4952094;28;20073;-60
2023/10/06 02:48:51;;;;;;;5.55;1.38;;;;;;;;;;4960490;28;20105;-63
2023/10/06 02:51:32;;;;;;;7.38;2.38;;;;;;;;;;4952670;28;20046;-66
2023/10/06 02:54:47;;;;;;;5.40;1.67;;;;;;;;;;4952071;28;20516;-62
2023/10/06 02:56:50;;;;;;;4.07;1.17;;;;;;;;;;4946895;28;20046;-60
2023/10/06 02:59:20;;;;;;;5.10;1.30;;;;;;;;;;4952417;28;20074;-59
2023/10/06 03:01:56;;;;;;;4.05;1.52;;;;;;;;;;4951629;28;20500;-62
2023/10/06 03:04:26;;;;;;;3.10;1.13;;;;;;;;;;4952114;28;20034;-60
2023/10/06 03:06:57;;;;;;;7.57;1.13;;;;;;;;;;4950121;28;20058;-59
2023/10/06 03:09:38;;;;;;;3.35;1.30;;;;;;;;;;4951950;28;20038;-60
2023/10/06 03:12:15;;;;;;;7.20;1.55;;;;;;;;;;4951480;28;20047;-62
2023/10/06 03:14:42;;;;;;;4.53;1.45;;;;;;;;;;4951328;28;20122;-60
2023/10/06 03:17:10;;;;;;;5.82;1.80;;;;;;;;;;4951198;28;20106;-58
2023/10/06 03:19:40;;;;;;;6.15;1.83;;;;;;;;;;4989289;28;20045;-65
2023/10/06 03:22:10;;;;;;;9.02;2.08;;;;;;;;;;4988775;28;20053;-65
2023/10/06 03:24:44;;;;;;;6.57;2.30;;;;;;;;;;4992412;28;20066;-60
2023/10/06 03:27:14;;;;;;;5.15;1.70;;;;;;;;;;4971955;28;20057;-59
2023/10/06 03:30:41;;;;;;;5.97;1.77;;;;;;;;;;4965800;28;20180;-60
2023/10/06 03:32:39;;;;;;;5.40;1.75;;;;;;;;;;4982827;28;20406;-58
2023/10/06 03:35:21;;;;;;;8.65;2.42;;;;;;;;;;4993465;28;20216;-58
2023/10/06 03:38:08;;;;;;;12.82;1.95;;;;;;;;;;4974857;28;20069;-62
2023/10/06 03:46:08;;;;;;;7.57;1.88;;;;;;;;;;4996163;28;20775;-60
2023/10/06 03:48:34;;;;;;;6.10;2.17;;;;;;;;;;4980572;28;20042;-62
2023/10/06 03:51:01;;;;;;;7.20;2.05;;;;;;;;;;4997898;28;20038;-59
2023/10/06 03:53:31;;;;;;;4.75;1.75;;;;;;;;;;4997891;28;20041;-60
2023/10/06 03:55:57;;;;;;;7.57;1.92;;;;;;;;;;4976655;28;20080;-61
2023/10/06 03:58:28;;;;;;;5.05;1.92;;;;;;;;;;4976911;28;20128;-59
2023/10/06 04:00:55;;;;;;;7.20;1.70;;;;;;;;;;4957328;28;20760;-59
2023/10/06 04:03:22;;;;;;;6.13;1.65;;;;;;;;;;4956019;28;20115;-67
2023/10/06 04:05:50;;;;;;;7.20;1.95;;;;;;;;;;4956955;28;20792;-59
2023/10/06 04:08:23;;;;;;;4.82;1.50;;;;;;;;;;4952471;28;20046;-59
2023/10/06 04:10:53;;;;;;;5.43;1.88;;;;;;;;;;4949244;28;20121;-59
2023/10/06 04:13:20;;;;;;;7.40;2.10;;;;;;;;;;4954124;28;20069;-58
2023/10/06 04:15:52;;;;;;;5.53;1.80;;;;;;;;;;4953308;28;20043;-58
2023/10/06 04:18:21;;;;;;;5.25;1.98;;;;;;;;;;4954275;28;20122;-64
2023/10/06 04:20:47;;;;;;;6.30;2.03;;;;;;;;;;4961829;28;20050;-61
2023/10/06 04:23:16;;;;;;;4.68;1.98;;;;;;;;;;4967849;28;20120;-59
2023/10/06 04:25:43;;;;;;;5.40;1.98;;;;;;;;;;4953650;28;20077;-60
2023/10/06 04:28:16;;;;;;;4.95;2.08;;;;;;;;;;4954704;28;20078;-60
2023/10/06 04:30:44;;;;;;;10.05;1.80;;;;;;;;;;4952850;28;20625;-61
2023/10/06 04:33:14;;;;;;;6.10;1.73;;;;;;;;;;4954445;28;20045;-60
2023/10/06 04:35:47;;;;;;;5.85;2.10;;;;;;;;;;4953093;28;20053;-60
2023/10/06 04:38:14;;;;;;;4.53;1.92;;;;;;;;;;4954582;28;20628;-60
2023/10/06 04:40:41;;;;;;;9.30;2.28;;;;;;;;;;4953762;28;20416;-62
2023/10/06 04:43:09;;;;;;;6.88;1.80;;;;;;;;;;4954680;28;20054;-60
2023/10/06 04:45:38;;;;;;;5.57;1.70;;;;;;;;;;4952889;28;20043;-60
2023/10/06 04:48:07;;;;;;;6.35;2.28;;;;;;;;;;4952850;28;20046;-59
2023/10/06 04:50:35;;;;;;;4.97;2.05;;;;;;;;;;4953247;28;20045;-62
2023/10/06 04:53:01;;;;;;;6.63;2.15;;;;;;;;;;4952535;28;20507;-61
2023/10/06 04:55:31;;;;;;;7.00;2.30;;;;;;;;;;4952726;28;20716;-60
2023/10/06 04:57:58;;;;;;;15.00;3.08;;;;;;;;;;4968561;28;20050;-60
2023/10/06 05:00:27;;;;;;;8.40;2.80;;;;;;;;;;4953085;28;20130;-60
2023/10/06 05:02:54;;;;;;;8.20;2.35;;;;;;;;;;4953696;28;20050;-59
2023/10/06 05:05:21;;;;;;;8.43;2.47;;;;;;;;;;4953300;28;20126;-62
2023/10/06 05:07:51;;;;;;;9.05;2.70;;;;;;;;;;4946114;28;20129;-61
2023/10/06 05:10:21;;;;;;;7.97;2.80;;;;;;;;;;4964048;28;20043;-60
2023/10/06 05:12:48;;;;;;;7.47;2.35;;;;;;;;;;4965969;28;20133;-60
2023/10/06 05:15:23;;;;;;;12.57;3.05;;;;;;;;;;4951468;28;20047;-60
2023/10/06 05:17:58;;;;;;;12.07;3.05;;;;;;;;;;4951533;28;20050;-60
2023/10/06 05:20:29;;;;;;;9.60;3.00;;;;;;;;;;4952843;28;20057;-60
2023/10/06 05:23:17;;;;;;;7.13;2.67;;;;;;;;;;4947982;28;20195;-63
2023/10/06 05:25:47;;;;;;;17.00;3.20;;;;;;;;;;4951822;28;20055;-60
2023/10/06 05:28:18;;;;;;;11.93;2.85;;;;;;;;;;4952928;28;20047;-60
2023/10/06 05:30:45;;;;;;;10.35;3.40;;;;;;;;;;4950901;28;21761;-60
2023/10/06 05:33:14;;;;;;;6.90;2.80;;;;;;;;;;4967929;28;21263;-62
2023/10/06 05:35:41;;;;;;;8.43;3.17;;;;;;;;;;4952214;28;20073;-62
2023/10/06 05:38:14;;;;;;;13.20;3.08;;;;;;;;;;4953332;28;20042;-59
2023/10/06 05:40:44;;;;;;;8.60;2.90;;;;;;;;;;4953434;28;20145;-60
2023/10/06 05:43:17;;;;;;;5.80;2.42;;;;;;;;;;4954626;28;20051;-60
2023/10/06 05:45:44;;;;;;;;;;;;;;;;;;4953777;28;20096;-60
2023/10/06 05:48:12;;;;;;;9.38;2.50;;;;;;;;;;4951856;28;19929;-60
2023/10/06 05:50:40;;;;;;;9.75;2.67;;;;;;;;;;4952854;28;20055;-62
2023/10/06 05:53:19;;;;;;;9.20;2.45;;;;;;;;;;4954825;28;20126;-61
2023/10/06 05:55:49;;;;;;;8.95;2.28;;;;;;;;;;4949099;28;20046;-60
2023/10/06 05:58:19;;;;;;;5.78;2.15;;;;;;;;;;4953214;28;20039;-63
2023/10/06 06:00:56;;;;;;;8.77;2.58;;;;;;;;;;4953576;28;20039;-58
2023/10/06 06:03:23;;;;;;;9.23;2.15;;;;;;;;;;4951277;28;20050;-60
2023/10/06 06:05:52;;;;;;;11.73;3.05;;;;;;;;;;4953750;28;20039;-61
2023/10/06 06:08:19;;;;;;;9.35;2.83;;;;;;;;;;4953883;28;20043;-61
2023/10/06 06:10:46;;;;;;;7.30;2.70;;;;;;;;;;4947063;28;20169;-58
2023/10/06 06:13:19;;;;;;;10.50;2.80;;;;;;;;;;4946636;28;20062;-59
2023/10/06 06:15:45;;;;;;;6.40;1.92;;;;;;;;;;4950914;28;20463;-59
2023/10/06 06:18:13;;;;;;;9.55;2.60;;;;;;;;;;4952940;28;20045;-57
2023/10/06 06:20:58;;;;;;;5.90;2.65;;;;;;;;;;4923868;28;20202;-58
2023/10/06 06:23:25;;;;;;;11.25;3.05;;;;;;;;;;4946415;28;20045;-58
2023/10/06 06:25:52;;;;;;;10.48;2.65;;;;;;;;;;4945881;28;20043;-58
2023/10/06 06:28:18;;;;;;;8.02;2.63;;;;;;;;;;4946944;28;20097;-57
2023/10/06 06:30:47;;;;;;;9.45;2.83;;;;;;;;;;4945898;28;20257;-59
2023/10/06 06:33:17;;;;;;;7.20;2.70;;;;;;;;;;4948125;28;20052;-59
2023/10/06 06:35:44;;;;;;;7.72;3.00;;;;;;;;;;4946709;28;20507;-61
2023/10/06 06:38:12;;;;;;;9.50;2.70;;;;;;;;;;4948305;28;20050;-59
2023/10/06 06:40:39;;;;;;;11.60;2.42;;;;;;;;;;4951928;28;20048;-61
2023/10/06 06:43:09;;;;;;;8.93;2.53;;;;;;;;;;4948616;28;20144;-56
2023/10/06 06:45:45;;;;;;;7.50;2.22;;;;;;;;;;4946835;28;20515;-60
2023/10/06 06:48:19;;;;;;;12.85;2.90;;;;;;;;;;4947811;28;20039;-57
2023/10/06 06:50:48;;;;;;;10.13;2.50;;;;;;;;;;4947151;28;20051;-57
2023/10/06 06:53:18;;;;;;;12.70;2.65;;;;;;;;;;4947557;28;20118;-58
2023/10/06 06:55:45;;;;;;;6.93;2.42;;;;;;;;;;4946366;28;20488;-57
2023/10/06 06:58:16;;;;;;;8.77;2.80;;;;;;;;;;4949302;28;20533;-55
2023/10/06 07:00:43;;;;;;;12.90;3.22;;;;;;;;;;4954708;28;20198;-56
2023/10/06 07:03:10;;;;;;;11.05;3.22;;;;;;;;;;4972610;28;20677;-57
2023/10/06 07:05:37;;;;;;;11.57;3.50;;;;;;;;;;4975099;28;20054;-60
2023/10/06 07:08:04;;;;;;;10.18;4.07;;;;;;;;;;4952080;28;20402;-58
2023/10/06 07:10:31;;;;;;;17.75;3.80;;;;;;;;;;4954114;28;20038;-58
2023/10/06 07:12:58;;;;;;;13.30;3.58;;;;;;;;;;4956314;28;20117;-57
2023/10/06 07:15:29;;;;;;;7.00;3.15;;;;;;;;;;4955128;28;20102;-62
2023/10/06 07:17:56;;;;;;;9.82;3.28;;;;;;;;;;4960687;28;20045;-58
2023/10/06 07:20:24;;;;;;;8.55;2.45;;;;;;;;;;4959772;28;20045;-58
2023/10/06 07:22:55;;;;;;;6.53;2.55;;;;;;;;;;4955358;28;20109;-61
2023/10/06 07:25:24;;;;;;;9.02;2.20;;;;;;;;;;4955896;28;20039;-59
2023/10/06 07:27:57;;;;;;;6.63;2.22;;;;;;;;;;4954762;28;20053;-58
2023/10/06 07:30:25;;;;;;;10.35;2.60;;;;;;;;;;4951839;28;20051;-61
2023/10/06 07:32:54;;;;;;;8.82;2.50;;;;;;;;;;4958714;28;20039;-57
2023/10/06 07:38:10;;;;;;;11.88;2.00;;;;;;;;;;4955605;28;20089;-61
2023/10/06 07:40:38;;;;;;;7.63;2.65;;;;;;;;;;4955530;28;20047;-61
2023/10/06 07:43:09;;;;;;;6.70;2.40;;;;;;;;;;4955956;28;20050;-60
2023/10/06 07:45:36;;;;;;;5.53;2.10;;;;;;;;;;4954894;28;20054;-61
2023/10/06 07:48:06;;;;;;;9.98;2.45;;;;;;;;;;4958254;28;20314;-63
2023/10/06 07:50:34;;;;;;;11.75;2.22;;;;;;;;;;4956316;28;20038;-60
2023/10/06 07:53:01;;;;;;;8.95;2.08;;;;;;;;;;4952119;28;20042;-57
2023/10/06 07:55:28;;;;;;;8.90;2.30;;;;;;;;;;4961917;28;20066;-59
2023/10/06 07:57:54;;;;;;;8.27;1.98;;;;;;;;;;4956186;28;20070;-58
2023/10/06 08:00:29;;;;;;;5.65;2.10;;;;;;;;;;4954407;28;20531;-58
2023/10/06 08:03:00;;;;;;;5.50;2.33;;;;;;;;;;4955257;28;20860;-57
2023/10/06 08:05:27;;;;;;;4.30;1.98;;;;;;;;;;4953857;28;20053;-58
2023/10/06 08:07:53;;;;;;;10.30;2.63;;;;;;;;;;4969785;28;21019;-58
2023/10/06 08:10:20;;;;;;;7.22;1.95;;;;;;;;;;4957569;28;20046;-58
2023/10/06 08:12:49;;;;;;;5.32;1.92;;;;;;;;;;4954499;28;20125;-57
2023/10/06 08:15:17;;;;;;;4.60;1.88;;;;;;;;;;4954768;28;20448;-57
2023/10/06 08:17:50;;;;;;;7.05;1.90;;;;;;;;;;4954081;28;20627;-58
2023/10/06 08:20:17;;;;;;;9.30;2.20;;;;;;;;;;4954323;28;20047;-57
2023/10/06 08:22:47;;;;;;;7.82;2.08;;;;;;;;;;4954372;28;20065;-58
2023/10/06 08:25:14;;;;;;;6.35;2.00;;;;;;;;;;4953821;28;20030;-58
2023/10/06 08:27:44;;;;;;;6.65;2.00;;;;;;;;;;4953936;28;20042;-58
2023/10/06 08:30:21;;;;;;;9.38;2.30;;;;;;;;;;4955318;28;20041;-59
2023/10/06 08:32:49;;;;;;;4.15;2.00;;;;;;;;;;4954964;28;20118;-59
2023/10/06 08:35:16;;;;;;;6.00;2.05;;;;;;;;;;4953584;28;20529;-57
2023/10/06 08:37:43;;;;;;;4.70;1.90;;;;;;;;;;4954481;28;20038;-58
2023/10/06 08:40:16;;;;;;;6.47;2.35;;;;;;;;;;4955396;28;20058;-58
2023/10/06 08:42:51;;;;;;;8.07;2.10;;;;;;;;;;4955218;28;20062;-58
2023/10/06 08:45:21;;;;;;;7.95;2.50;;;;;;;;;;4956508;28;20162;-58
2023/10/06 08:47:49;;;;;;;5.13;2.45;;;;;;;;;;4956202;28;20043;-57
2023/10/06 08:50:22;;;;;;;7.10;2.13;;;;;;;;;;4955994;28;20102;-56
2023/10/06 08:52:50;;;;;;;5.65;2.20;;;;;;;;;;4967802;28;20045;-55
2023/10/06 08:55:18;;;;;;;4.28;1.85;;;;;;;;;;4958514;28;20043;-57
2023/10/06 08:57:48;;;;;;;9.20;1.98;;;;;;;;;;4948067;28;20142;-59
2023/10/06 09:00:19;;;;;;;7.20;1.90;;;;;;;;;;4954290;28;20038;-58
2023/10/06 09:02:48;;;;;;;6.78;2.30;;;;;;;;;;4954036;28;20074;-59
2023/10/06 09:05:14;;;;;;;5.68;1.77;;;;;;;;;;4954472;28;20062;-57
2023/10/06 09:08:00;;;;;;;7.25;2.40;;;;;;;;;;4953488;28;20276;-56
2023/10/06 09:10:27;;;;;;;4.97;1.95;;;;;;;;;;4954223;28;20677;-58
2023/10/06 09:13:01;;;;;;;8.65;1.98;;;;;;;;;;4954725;28;20594;-58
2023/10/06 09:15:31;;;;;;;8.25;2.35;;;;;;;;;;4953781;28;20042;-58
2023/10/06 09:17:58;;;;;;;9.02;2.33;;;;;;;;;;4954872;28;20440;-57
2023/10/06 09:20:32;;;;;;;6.07;2.22;;;;;;;;;;4953570;28;20041;-58
2023/10/06 09:22:59;;;;;;;7.25;1.80;;;;;;;;;;4953618;28;20046;-58
2023/10/06 09:25:26;;;;;;;9.65;2.13;;;;;;;;;;4951928;28;20612;-58
2023/10/06 09:28:03;;;;;;;9.02;2.03;;;;;;;;;;4953225;28;20038;-60
2023/10/06 09:30:30;;;;;;;5.72;1.80;;;;;;;;;;4952946;28;20492;-59
2023/10/06 09:33:08;;;;;;;6.22;2.00;;;;;;;;;;4952957;28;20034;-59
2023/10/06 09:35:35;;;;;;;6.22;1.85;;;;;;;;;;4952344;28;20117;-61
2023/10/06 09:38:13;;;;;;;6.32;1.90;;;;;;;;;;4953017;28;20853;-59
2023/10/06 09:40:44;;;;;;;5.40;1.98;;;;;;;;;;4952287;28;20051;-59
2023/10/06 09:43:18;;;;;;;7.00;1.75;;;;;;;;;;4952342;28;20137;-59
2023/10/06 09:45:45;;;;;;;4.05;1.40;;;;;;;;;;4951714;28;20039;-59
2023/10/06 09:48:15;;;;;;;5.45;1.83;;;;;;;;;;4951642;28;20162;-59
2023/10/06 09:50:43;;;;;;;8.63;2.25;;;;;;;;;;4951813;28;20056;-60
2023/10/06 09:53:14;;;;;;;5.47;1.65;;;;;;;;;;4950499;28;20323;-63
2023/10/06 09:55:40;;;;;;;6.55;2.10;;;;;;;;;;4952655;28;20047;-60
2023/10/06 09:58:08;;;;;;;6.45;1.92;;;;;;;;;;4953132;28;20050;-58
2023/10/06 10:00:39;;;;;;;5.45;1.55;;;;;;;;;;4952232;28;20548;-59
2023/10/06 10:03:12;;;;;;;6.65;2.10;;;;;;;;;;4953067;28;20604;-58
2023/10/06 10:05:38;;;;;;;;;;;;;;;;;;4952920;28;20077;-57
2023/10/06 10:08:06;;;;;;;5.28;1.67;;;;;;;;;;4952576;28;19922;-57
2023/10/06 10:10:34;;;;;;;7.78;1.83;;;;;;;;;;4952394;28;20047;-58
2023/10/06 10:13:08;;;;;;;5.97;1.95;;;;;;;;;;4952918;28;20042;-60
2023/10/06 10:15:37;;;;;;;5.55;1.95;;;;;;;;;;4952669;28;20174;-58
2023/10/06 10:18:08;;;;;;;9.60;1.95;;;;;;;;;;4953429;28;20578;-57
2023/10/06 10:20:36;;;;;;;6.13;2.28;;;;;;;;;;4951719;28;20396;-58
2023/10/06 10:23:03;;;;;;;6.57;1.70;;;;;;;;;;4953617;28;20775;-58
2023/10/06 10:25:31;;;;;;;8.70;1.90;;;;;;;;;;4950992;28;20126;-57
2023/10/06 10:28:13;;;;;;;6.95;1.70;;;;;;;;;;4953358;28;20055;-58
2023/10/06 10:30:56;;;;;;;4.65;1.90;;;;;;;;;;4952773;28;20043;-56
2023/10/06 10:33:24;;;;;;;6.18;1.70;;;;;;;;;;4951715;28;20057;-57
2023/10/06 10:36:09;;;;;;;5.47;2.00;;;;;;;;;;4952984;28;20133;-58
2023/10/06 10:38:37;;;;;;;6.13;2.05;;;;;;;;;;4952526;28;20039;-58
2023/10/06 10:41:08;;;;;;;7.63;2.38;;;;;;;;;;4953217;28;20595;-59
2023/10/06 10:43:38;;;;;;;4.63;1.80;;;;;;;;;;4953030;28;20051;-57
2023/10/06 10:46:08;;;;;;;5.50;1.70;;;;;;;;;;4958995;28;20074;-58
2023/10/06 10:48:37;;;;;;;7.22;2.10;;;;;;;;;;4958024;28;20093;-59
2023/10/06 10:51:13;;;;;;;7.78;2.17;;;;;;;;;;4958085;28;20394;-58
2023/10/06 10:53:44;;;;;;;5.28;1.92;;;;;;;;;;4957714;28;20463;-58
2023/10/06 10:56:32;;;;;;;6.78;2.20;;;;;;;;;;4958994;28;20133;-59
2023/10/06 10:58:59;;;;;;;8.63;2.05;;;;;;;;;;4959826;28;21373;-58
2023/10/06 11:01:31;;;;;;;10.55;2.25;;;;;;;;;;4966222;28;20445;-60
2023/10/06 11:07:15;;;;;;;12.75;2.58;;;;;;;;;;4963104;28;20073;-64
2023/10/06 11:09:47;;;;;;;6.47;2.00;;;;;;;;;;4957536;28;20224;-61
2023/10/06 11:12:35;;;;;;;4.97;2.00;;;;;;;;;;4958101;28;20042;-59
2023/10/06 11:15:14;;;;;;;7.63;2.00;;;;;;;;;;4962946;28;20129;-59
2023/10/06 11:17:44;;;;;;;5.22;2.00;;;;;;;;;;4956114;28;20129;-59
2023/10/06 11:20:27;;;;;;;7.40;2.10;;;;;;;;;;4957965;28;20050;-59
2023/10/06 11:22:54;;;;;;;3.88;1.73;;;;;;;;;;4977349;28;20053;-60
2023/10/06 11:25:27;;;;;;;9.05;2.08;;;;;;;;;;4967755;28;20039;-63
2023/10/06 11:28:02;;;;;;;4.87;1.83;;;;;;;;;;4958322;28;20035;-60
2023/10/06 11:30:31;;;;;;;5.10;2.17;;;;;;;;;;4957317;28;20293;-59
2023/10/06 11:32:58;;;;;;;11.48;2.20;;;;;;;;;;4958580;28;20431;-60
2023/10/06 11:35:24;;;;;;;5.95;2.15;;;;;;;;;;4957340;28;20047;-58
2023/10/06 11:37:51;;;;;;;5.78;1.98;;;;;;;;;;4959221;28;20509;-59
2023/10/06 11:40:18;;;;;;;7.82;2.10;;;;;;;;;;4959751;28;20051;-62
2023/10/06 11:42:44;;;;;;;6.47;2.00;;;;;;;;;;4956563;28;20058;-58
2023/10/06 11:45:30;;;;;;;6.03;2.08;;;;;;;;;;4955540;28;20045;-58
2023/10/06 11:47:58;;;;;;;5.40;2.10;;;;;;;;;;4959270;28;20046;-59
2023/10/06 11:50:34;;;;;;;5.47;2.20;;;;;;;;;;4958292;28;20085;-59
2023/10/06 11:53:01;;;;;;;7.03;2.40;;;;;;;;;;4952675;28;20149;-59
2023/10/06 11:55:35;;;;;;;7.25;2.25;;;;;;;;;;4955921;28;20042;-58
2023/10/06 11:58:07;;;;;;;8.73;2.47;;;;;;;;;;4955422;28;20039;-59
2023/10/06 12:00:38;;;;;;;6.53;1.98;;;;;;;;;;4951127;28;20042;-60
2023/10/06 12:03:06;;;;;;;5.65;1.75;;;;;;;;;;4954577;28;20058;-58
2023/10/06 12:05:33;;;;;;;7.90;2.05;;;;;;;;;;4955005;28;20514;-58
2023/10/06 12:08:03;;;;;;;7.70;2.03;;;;;;;;;;4956365;28;20089;-58
2023/10/06 12:10:32;;;;;;;6.03;2.10;;;;;;;;;;4954680;28;20043;-58
2023/10/06 12:12:59;;;;;;;6.07;2.15;;;;;;;;;;4955705;28;20030;-60
2023/10/06 12:15:29;;;;;;;8.18;2.05;;;;;;;;;;4954009;28;20030;-58
2023/10/06 12:17:56;;;;;;;6.15;1.98;;;;;;;;;;4955044;28;20392;-60
2023/10/06 12:20:24;;;;;;;9.60;1.90;;;;;;;;;;4953134;28;20042;-59
2023/10/06 12:22:51;;;;;;;4.45;1.80;;;;;;;;;;4954640;28;20138;-59
2023/10/06 12:25:23;;;;;;;7.35;1.75;;;;;;;;;;4953612;28;20105;-59
2023/10/06 12:27:50;;;;;;;8.10;2.22;;;;;;;;;;4965604;28;20202;-60
2023/10/06 12:30:21;;;;;;;5.93;2.10;;;;;;;;;;4967074;28;20077;-59
2023/10/06 12:32:48;;;;;;;6.90;2.08;;;;;;;;;;4959120;28;20040;-58
2023/10/06 12:35:21;;;;;;;5.10;1.67;;;;;;;;;;4966757;28;20373;-59
2023/10/06 12:37:48;;;;;;;6.72;2.30;;;;;;;;;;4954324;28;20578;-58
2023/10/06 12:40:16;;;;;;;4.65;2.03;;;;;;;;;;4950648;28;20055;-60
2023/10/06 12:42:43;;;;;;;6.38;2.08;;;;;;;;;;4954030;28;20085;-62
2023/10/06 12:45:13;;;;;;;6.22;1.98;;;;;;;;;;4952661;28;20058;-60
2023/10/06 12:47:45;;;;;;;4.90;1.75;;;;;;;;;;4955335;28;20337;-58
2023/10/06 12:50:16;;;;;;;5.85;2.30;;;;;;;;;;4973320;28;20129;-59
2023/10/06 12:52:43;;;;;;;8.57;2.35;;;;;;;;;;4960833;28;20043;-59
2023/10/06 12:55:10;;;;;;;4.35;1.80;;;;;;;;;;4952846;28;20045;-58
2023/10/06 12:57:40;;;;;;;4.65;1.70;;;;;;;;;;4952933;28;20598;-59
2023/10/06 13:00:11;;;;;;;6.70;2.00;;;;;;;;;;4953178;28;20027;-59
2023/10/06 13:02:38;;;;;;;8.60;2.22;;;;;;;;;;4952665;28;20054;-58
2023/10/06 13:05:08;;;;;;;6.55;1.88;;;;;;;;;;4954989;28;20059;-57
2023/10/06 13:07:36;;;;;;;7.60;2.03;;;;;;;;;;4967119;28;20494;-58
2023/10/06 13:10:06;;;;;;;6.03;1.90;;;;;;;;;;4963728;28;20042;-58
2023/10/06 13:12:42;;;;;;;5.20;1.60;;;;;;;;;;4966474;28;20478;-59
2023/10/06 13:15:09;;;;;;;4.97;2.05;;;;;;;;;;4954135;28;20054;-58
2023/10/06 13:17:37;;;;;;;3.92;1.70;;;;;;;;;;4951690;28;20035;-58
2023/10/06 13:20:07;;;;;;;12.57;2.30;;;;;;;;;;4952236;28;20645;-59
2023/10/06 13:22:35;;;;;;;4.63;1.77;;;;;;;;;;4952202;28;20089;-59
2023/10/06 13:25:02;;;;;;;4.28;1.65;;;;;;;;;;4952087;28;20477;-58
2023/10/06 13:27:29;;;;;;;6.82;2.55;;;;;;;;;;4952054;28;20545;-58
2023/10/06 13:29:56;;;;;;;5.20;2.00;;;;;;;;;;4952709;28;20109;-61
2023/10/06 13:32:22;;;;;;;6.28;2.28;;;;;;;;;;4951794;28;20621;-58
2023/10/06 13:34:51;;;;;;;5.90;2.05;;;;;;;;;;4951379;28;20058;-56
2023/10/06 13:37:17;;;;;;;5.90;2.00;;;;;;;;;;4953493;28;20102;-59
2023/10/06 13:39:44;;;;;;;13.65;2.60;;;;;;;;;;4953174;28;20133;-59
2023/10/06 13:42:15;;;;;;;8.95;2.50;;;;;;;;;;4954874;28;20113;-60
2023/10/06 13:44:44;;;;;;;5.03;2.10;;;;;;;;;;4956057;28;20043;-60
2023/10/06 13:47:11;;;;;;;6.20;2.38;;;;;;;;;;4953376;28;20184;-58
2023/10/06 13:49:40;;;;;;;5.35;2.00;;;;;;;;;;4970170;28;20077;-60
2023/10/06 13:52:07;;;;;;;7.75;2.30;;;;;;;;;;4956556;28;20030;-58
2023/10/06 13:54:34;;;;;;;11.57;2.03;;;;;;;;;;4947724;28;21018;-59
2023/10/06 13:57:03;;;;;;;5.28;2.15;;;;;;;;;;4956414;28;20034;-61
2023/10/06 13:59:30;;;;;;;6.10;1.92;;;;;;;;;;4965098;28;20500;-60
2023/10/06 14:01:57;;;;;;;6.45;2.10;;;;;;;;;;4952418;28;20117;-60
2023/10/06 14:04:23;;;;;;;7.75;1.83;;;;;;;;;;4951384;28;20093;-59
2023/10/06 14:06:50;;;;;;;7.50;2.13;;;;;;;;;;4952378;28;20042;-58
2023/10/06 14:09:23;;;;;;;8.32;1.92;;;;;;;;;;4952296;28;20046;-59
2023/10/06 14:11:53;;;;;;;7.25;1.85;;;;;;;;;;4970833;28;20038;-63
2023/10/06 14:17:13;;;;;;;10.02;2.05;;;;;;;;;;4951428;28;20154;-60
2023/10/06 14:19:39;;;;;;;7.60;1.83;;;;;;;;;;4953860;28;20208;-61
2023/10/06 14:22:06;;;;;;;5.13;1.75;;;;;;;;;;4965473;28;20039;-61
2023/10/06 14:24:36;;;;;;;4.60;1.60;;;;;;;;;;4950776;28;20043;-59
2023/10/06 14:27:04;;;;;;;5.05;1.98;;;;;;;;;;4952838;28;20938;-59
2023/10/06 14:29:30;;;;;;;6.35;1.58;;;;;;;;;;4952332;28;20078;-61
2023/10/06 14:32:44;;;;;;;9.65;1.88;;;;;;;;;;4946856;28;20605;-58
2023/10/06 14:34:58;;;;;;;6.80;1.65;;;;;;;;;;4948004;28;20132;-60
2023/10/06 14:38:04;;;;;;;11.38;2.20;;;;;;;;;;4952689;28;20509;-61
2023/10/06 14:45:57;;;;;;;7.93;1.85;;;;;;;;;;4961152;28;20066;-58
2023/10/06 14:46:01;;;;;;;6.00;1.73;;;;;;;;;;4952079;28;20073;-61
2023/10/06 14:48:28;;;;;;;7.43;1.50;;;;;;;;;;4953190;28;20043;-59
2023/10/06 14:51:01;;;;;;;11.77;2.03;;;;;;;;;;4953608;28;20384;-61
2023/10/06 14:53:31;;;;;;;5.57;1.85;;;;;;;;;;4952605;28;20046;-60
2023/10/06 14:55:58;;;;;;;5.63;1.83;;;;;;;;;;4953752;28;20043;-64
2023/10/06 14:58:24;;;;;;;4.03;1.42;;;;;;;;;;4953030;28;20047;-63
2023/10/06 15:00:51;;;;;;;10.00;1.80;;;;;;;;;;4953080;28;20527;-59
2023/10/06 15:03:18;;;;;;;7.90;1.70;;;;;;;;;;4953656;28;20051;-61
2023/10/06 15:05:45;;;;;;;5.28;1.70;;;;;;;;;;4950446;28;20580;-59
2023/10/06 15:08:16;;;;;;;5.18;1.75;;;;;;;;;;4951504;28;20463;-59
2023/10/06 15:10:43;;;;;;;4.15;1.50;;;;;;;;;;4951729;28;20043;-61
2023/10/06 15:13:13;;;;;;;9.25;2.00;;;;;;;;;;4951566;28;21447;-60
2023/10/06 15:15:46;;;;;;;5.50;1.70;;;;;;;;;;4950745;28;20036;-58
2023/10/06 15:18:18;;;;;;;9.32;1.95;;;;;;;;;;4952289;28;20110;-60
2023/10/06 15:20:49;;;;;;;4.40;1.50;;;;;;;;;;4945631;28;20109;-59
2023/10/06 15:23:17;;;;;;;7.22;2.00;;;;;;;;;;4950974;28;20113;-61
2023/10/06 15:26:04;;;;;;;7.28;1.73;;;;;;;;;;4950979;28;20522;-59
2023/10/06 15:28:32;;;;;;;4.72;1.88;;;;;;;;;;4949045;28;20035;-60
2023/10/06 15:30:59;;;;;;;5.45;2.08;;;;;;;;;;4966985;28;20078;-62